• Join FlightAware (Why Join?)
  • Login
  • US Flag 
04:46AM EDT


 

Airport Tracker/Info


-or-


 

Live Flight TrackerFlight Track Log ✈ AWE2740 ✈ 05-May-2013 ✈ KCLT - KMHT

Flight Track Log - Related Links

Times and Time Zones

All times are in EDT time to prevent confusion due to time zone crossing. See the AWE2740 flight status page for this flight to view local times or setup timezone preferences in your user account.

Time Position Orientation Groundspeed Altitude Reporting Facility
EDT Latitude Longitude Course Direction KTS MPH feet Rate Location/Type
10:05PM 35.2369 -80.9417 72° East 192 221 1,300  Level Atlanta Center
10:06PM 35.2781 -80.9247 19° North 193 222 2,900 1,800 Climbing Atlanta Center
10:06PM 35.3019 -80.8731 60° Northeast 235 270 4,400 2,160 Climbing Atlanta Center
10:07PM 35.2958 -80.8044 96° East 221 254 6,400 2,280 Climbing Atlanta Center
10:08PM 35.3157 -80.4840 30° Northeast  Level FlightAware Approximate
10:08PM 35.2894 -80.7208 95° East 257 296 8,500  Level Atlanta Center
10:09PM 35.3671 -80.3387 72° East  Level FlightAware Approximate
10:09PM 35.2997 -80.6314 82° East 294 338 10,900  Level Atlanta Center
10:10PM 35.4104 -80.1739 72° East  Level FlightAware Approximate
10:10PM 35.3197 -80.5311 76° East 299 344 13,200  Level Atlanta Center
10:11PM 35.3458 -80.4283 73° East 299 344 14,900 1,500 Climbing Atlanta Center
10:13PM 35.4233 -80.1825 69° East 378 435 17,900 1,500 Climbing Washington Center
10:15PM 35.4867 -79.9361 72° East 390 449 21,100 1,560 Climbing Washington Center
10:16PM 35.5206 -79.8028 73° East 395 455 22,800 1,500 Climbing Washington Center
10:17PM 35.5544 -79.6719 72° East 395 455 24,200 1,380 Climbing Washington Center
10:18PM 35.5906 -79.5281 73° East 419 482 25,600 1,080 Climbing Washington Center
10:19PM 35.6303 -79.3947 70° East 424 488 26,400 780 Climbing Washington Center
10:20PM 35.6869 -79.2567 63° Northeast 424 488 27,200 780 Climbing Washington Center
10:21PM 35.7433 -79.1133 64° Northeast 443 510 28,000 840 Climbing Washington Center
10:22PM 35.8017 -78.9700 63° Northeast 448 516 28,900 840 Climbing Washington Center
10:23PM 35.8600 -78.8186 65° Northeast 469 540 29,800 840 Climbing Washington Center
10:24PM 35.9353 -78.6628 59° Northeast 475 547 30,600 780 Climbing Washington Center
10:25PM 36.0033 -78.5189 60° Northeast 481 554 31,400 780 Climbing Washington Center
10:26PM 36.0758 -78.3728 58° Northeast 481 554 32,300 1,020 Climbing Washington Center
10:27PM 36.1439 -78.2283 60° Northeast 481 554 33,500 960 Climbing Washington Center
10:28PM 36.2114 -78.0867 59° Northeast 481 554 34,300 720 Climbing Washington Center
10:29PM 36.2789 -77.9469 59° Northeast 481 554 35,000 300 Climbing Washington Center
10:30PM 36.3464 -77.8044 60° Northeast 481 554 35,000  Level Washington Center
10:31PM 36.4158 -77.6542 60° Northeast 481 554 35,000  Level Washington Center
10:32PM 36.4831 -77.5061 61° Northeast 481 554 35,000  Level Washington Center
10:33PM 36.5475 -77.3708 59° Northeast 498 573 35,000  Level Washington Center
10:34PM 36.6167 -77.2197 60° Northeast 498 573 35,000  Level Washington Center
10:35PM 36.6872 -77.0708 59° Northeast 498 573 35,000  Level Washington Center
10:36PM 36.7847 -76.9483 45° Northeast 498 573 35,000  Level Washington Center
10:37PM 36.8925 -76.8203 44° Northeast 487 560 35,000  Level Washington Center
10:38PM 37.0058 -76.7467 27° Northeast 487 560 35,000  Level Washington Center
10:39PM 37.1172 -76.6467 36° Northeast 487 560 35,000  Level Washington Center
10:40PM 37.2289 -76.5467 35° Northeast 487 560 35,000  Level Washington Center
10:41PM 37.3483 -76.4383 36° Northeast 482 555 35,000  Level Washington Center
10:42PM 37.4575 -76.3375 36° Northeast 482 555 35,000  Level Washington Center
10:43PM 37.5667 -76.2389 36° Northeast 482 555 35,000  Level Washington Center
10:44PM 37.6756 -76.1428 35° Northeast 482 555 35,000  Level Washington Center
10:45PM 37.7822 -76.0386 38° Northeast 482 555 35,000  Level Washington Center
10:46PM 37.8889 -75.9392 36° Northeast 482 555 35,000  Level Washington Center
10:47PM 37.9978 -75.8367 37° Northeast 482 555 35,000  Level Washington Center
10:48PM 38.1022 -75.7342 38° Northeast 482 555 35,000  Level Washington Center
10:49PM 38.2169 -75.6553 28° Northeast 476 548 35,000  Level Washington Center
10:50PM 38.3317 -75.6181 14° North 459 528 35,000  Level Washington Center
10:51PM 38.4525 -75.5783 14° North 464 534 35,000  Level Washington Center
10:52PM 38.5733 -75.5358 15° North 457 526 35,000  Level Washington Center
10:53PM 38.6922 -75.4853 18° North 452 520 35,000  Level Washington Center
10:54PM 38.8131 -75.4425 15° North 452 520 35,000  Level Washington Center
10:55PM 38.9339 -75.3994 15° North 452 520 35,000  Level Washington Center
10:56PM 39.0506 -75.3536 17° North 452 520 35,000  Level Washington Center
10:57PM 39.1694 -75.3131 15° North 442 509 35,000  Level Washington Center
10:58PM 39.2922 -75.2672 16° North 442 509 35,000  Level Washington Center
10:59PM 39.4089 -75.2264 15° North 442 509 35,000  Level Washington Center
11:00PM 39.5294 -75.1800 17° North 437 503 35,000  Level Washington Center
11:02PM 39.7633 -75.0919 16° North 430 495 35,000  Level New York Center
11:03PM 39.8794 -75.0503 15° North 430 495 35,000  Level New York Center
11:04PM 39.9914 -75.0111 15° North 435 501 35,000  Level New York Center
11:05PM 40.1036 -74.9664 17° North 441 507 35,000  Level New York Center
11:06PM 40.2133 -74.9242 16° North 424 488 35,000  Level New York Center
11:07PM 40.3214 -74.8789 18° North 414 476 35,000  Level New York Center
11:08PM 40.4311 -74.8336 17° North 409 471 35,000  Level New York Center
11:10PM 40.6325 -74.7456 18° North 414 476 35,000  Level Boston Center
11:11PM 40.7397 -74.7000 18° North 406 467 35,000  Level Boston Center
11:12PM 40.8492 -74.6489 19° North 406 467 35,000  Level Boston Center
11:13PM 40.9542 -74.6058 17° North 406 467 35,000  Level Boston Center
11:14PM 41.0611 -74.5597 18° North 406 467 35,000  Level Boston Center
11:15PM 41.1475 -74.5211 19° North 406 467 35,000  Level Boston Center
11:16PM 41.2714 -74.4728 16° North 412 474 35,000  Level Boston Center
11:17PM 41.3783 -74.4236 19° North 412 474 35,000  Level Boston Center
11:18PM 41.4939 -74.3689 20° North 397 457 35,000 -300 Level Boston Center
11:19PM 41.5947 -74.3250 18° North 409 471 34,500 -900 Descending Boston Center
11:20PM 41.6858 -74.2303 38° Northeast 409 471 33,300 -1,200 Descending Boston Center
11:21PM 41.7814 -74.1328 37° Northeast 419 482 32,100 -1,200 Descending Boston Center
11:22PM 41.8658 -74.0431 38° Northeast 414 476 30,900 -1,380 Descending Boston Center
11:23PM 41.9547 -73.9447 39° Northeast 409 471 29,400 -1,500 Descending Boston Center
11:24PM 42.0414 -73.8547 38° Northeast 402 463 27,900 -1,200 Descending Boston Center
11:25PM 42.1281 -73.7614 39° Northeast 397 457 27,000 -720 Descending Boston Center
11:26PM 42.2103 -73.6678 40° Northeast 397 457 26,500 -540 Descending Boston Center
11:27PM 42.2819 -73.6019 34° Northeast 354 407 26,000 -300 Descending Boston Center
11:28PM 42.3636 -73.5669 18° North 304 350 26,000  Level Boston Center
11:29PM 42.4475 -73.5008 30° Northeast 322 371 26,000  Level Boston Center
11:30PM 42.4819 -73.3747 70° East 322 371 26,000  Level Boston Center
11:31PM 42.5144 -73.2344 73° East 349 402 26,000  Level Boston Center
11:32PM 42.5444 -73.1081 72° East 344 396 26,000 -660 Level Boston Center
11:33PM 42.5783 -72.9644 72° East 339 390 24,600 -1,680 Descending Boston Center
11:34PM 42.6081 -72.8436 71° East 339 390 22,700 -1,800 Descending Boston Center
11:35PM 42.6333 -72.7278 73° East 333 383 21,000 -1,860 Descending Boston Center
11:36PM 42.6628 -72.6122 71° East 320 368 19,000 -1,560 Descending Boston Center
11:37PM 42.6839 -72.5247 72° East 302 348 17,900 -1,680 Descending Boston Center
11:38PM 42.7150 -72.3950 72° East 302 348 15,700 -2,040 Descending Boston Center
11:39PM 42.7400 -72.2847 73° East 302 348 13,900 -1,800 Descending Boston Center
11:40PM 42.7606 -72.1883 74° East 302 348 12,200 -1,860 Descending Boston Center
11:41PM 42.7875 -72.0694 73° East 302 348 10,200 -1,800 Descending Boston Center
11:42PM 42.8247 -71.9844 59° Northeast 285 328 8,600 -1,620 Descending Boston Center
11:43PM 42.8847 -71.9072 43° Northeast 273 314 7,000 -1,500 Descending Boston Center
11:44PM 42.9303 -71.8447 45° Northeast 263 303 5,600 -1,320 Descending Boston Center
11:45PM 42.9653 -71.7506 63° Northeast 247 284 4,100 -1,020 Descending Boston Center
11:46PM 43.0000 -71.6508 65° Northeast 241 277 3,400 -600 Descending Boston Center
11:47PM 43.0286 -71.5739 63° Northeast 234 269 2,900 -780 Descending Boston Center
11:48PM 43.0344 -71.5114 83° East 180 207 1,900 -660 Descending Boston Center
11:49PM 43.0028 -71.4747 140° Southeast 150 173 1,600 -600 Descending Boston Center
11:50PM 42.9672 -71.4556 158° South 137 158 800 -840 Descending Boston Center